ENGM/OSL METAR and TAF weather

Enter ICAO airport designator
Station Type Date Time Source
ENGM METAR 2022/05/23 14:50 UTC NOAA

ENGM 231450Z 21010KT 170V230 CAVOK 16/05 Q1007 NOSIG


Station Type Date Time Source
ENGM Decoded METAR 2022/05/23 14:50 UTC NOAA

Oslo / Gardermoen, Norway (ENGM) 60-12N 011-05E 204M
May 23, 2022 - 10:50 AM EDT / 2022.05.23 1450 UTC
Wind: from the SSW (210 degrees) at 12 MPH (10 KT) (direction variable):0
Visibility: greater than 7 mile(s):0
Temperature: 60 F (16 C)
Dew Point: 41 F (5 C)
Relative Humidity: 47%
Pressure (altimeter): 29.74 in. Hg (1007 hPa)
ob: ENGM 231450Z 21010KT 170V230 CAVOK 16/05 Q1007 NOSIG
cycle: 15

Station Type Date Time Source
ENGM TAF 2022/05/23 12:58 UTC NOAA

TAF ENGM 231100Z 2312/2412 16010KT 9999 BKN040
TEMPO 2318/2406 VRB05KT

Example: see airport list